Time;durP1;ratioP1;P1;durP2;ratioP2;P2;SDS_P1;SDS_P2;PMS_P1;PMS_P2;Temp;Humidity;BMP_temperature;BMP_pressure;BME280_temperature;BME280_humidity;BME280_pressure;Samples;Min_cycle;Max_cycle;Signal;HPM_P1;HPM_P2
2023/06/03 00:03:27;;;;;;;3.17;2.65;;;;;;;;;;10492996;28;20040;-55
2023/06/03 00:08:28;;;;;;;2.70;2.50;;;;;;;;;;10492951;28;20036;-56
2023/06/03 00:13:28;;;;;;;2.72;2.53;;;;;;;;;;10492629;28;20035;-56
2023/06/03 00:18:30;;;;;;;3.35;2.85;;;;;;;;;;10492658;28;20025;-56
2023/06/03 00:23:31;;;;;;;2.72;2.53;;;;;;;;;;10492529;28;20108;-56
2023/06/03 00:28:32;;;;;;;3.00;2.60;;;;;;;;;;10491970;28;20361;-55
2023/06/03 00:33:32;;;;;;;2.92;2.50;;;;;;;;;;10492313;28;20024;-56
2023/06/03 00:38:33;;;;;;;3.03;2.55;;;;;;;;;;10492117;28;20107;-57
2023/06/03 00:43:34;;;;;;;2.92;2.55;;;;;;;;;;10492017;28;20032;-56
2023/06/03 00:48:35;;;;;;;2.67;2.33;;;;;;;;;;10492025;28;20086;-56
2023/06/03 00:53:35;;;;;;;3.20;2.40;;;;;;;;;;10491994;28;20103;-56
2023/06/03 00:58:36;;;;;;;3.22;2.55;;;;;;;;;;10491660;28;20024;-56
2023/06/03 01:03:37;;;;;;;3.10;2.42;;;;;;;;;;10491424;28;20093;-55
2023/06/03 01:08:51;;;;;;;2.85;2.60;;;;;;;;;;10491763;28;20060;-56
2023/06/03 01:14:17;;;;;;;2.42;2.22;;;;;;;;;;10490098;28;20415;-57
2023/06/03 01:19:48;;;;;;;2.55;2.08;;;;;;;;;;10490338;28;20025;-56
2023/06/03 01:24:53;;;;;;;2.63;2.42;;;;;;;;;;10491297;28;20025;-56
2023/06/03 01:29:53;;;;;;;2.25;2.00;;;;;;;;;;10491563;28;20399;-57
2023/06/03 01:34:54;;;;;;;2.90;2.60;;;;;;;;;;10490914;28;20110;-55
2023/06/03 01:39:56;;;;;;;2.92;2.35;;;;;;;;;;10491608;28;20440;-55
2023/06/03 01:45:03;;;;;;;1.92;1.83;;;;;;;;;;10498465;28;20025;-55
2023/06/03 01:50:04;;;;;;;3.72;2.55;;;;;;;;;;10498684;28;20399;-55
2023/06/03 01:55:05;;;;;;;2.78;2.22;;;;;;;;;;10498177;28;20033;-56
2023/06/03 02:00:06;;;;;;;2.67;2.40;;;;;;;;;;10498313;28;20089;-54
2023/06/03 02:05:07;;;;;;;2.60;2.40;;;;;;;;;;10496221;28;20040;-56
2023/06/03 02:10:08;;;;;;;2.67;2.45;;;;;;;;;;10497603;28;20035;-56
2023/06/03 02:15:09;;;;;;;2.63;2.42;;;;;;;;;;10497187;28;20035;-56
2023/06/03 02:20:10;;;;;;;3.35;2.40;;;;;;;;;;10497142;28;20025;-56
2023/06/03 02:25:11;;;;;;;6.75;2.20;;;;;;;;;;10497679;28;20031;-54
2023/06/03 02:30:12;;;;;;;2.10;2.00;;;;;;;;;;10497003;28;20021;-55
2023/06/03 02:35:14;;;;;;;2.17;1.98;;;;;;;;;;10496627;28;20044;-55
2023/06/03 02:40:14;;;;;;;2.58;2.20;;;;;;;;;;10496776;28;20020;-55
2023/06/03 02:45:15;;;;;;;3.35;2.45;;;;;;;;;;10496105;28;20486;-56
2023/06/03 02:50:16;;;;;;;2.25;2.10;;;;;;;;;;10496198;28;20021;-55
2023/06/03 02:55:16;;;;;;;2.40;2.20;;;;;;;;;;10495666;28;20115;-56
2023/06/03 03:00:17;;;;;;;2.35;2.17;;;;;;;;;;10495769;28;20025;-56
2023/06/03 03:05:18;;;;;;;2.85;2.30;;;;;;;;;;10495257;28;20040;-55
2023/06/03 03:10:19;;;;;;;2.50;2.30;;;;;;;;;;10495325;28;20032;-56
2023/06/03 03:15:19;;;;;;;2.38;2.17;;;;;;;;;;10495197;28;20024;-56
2023/06/03 03:20:20;;;;;;;2.72;2.45;;;;;;;;;;10495014;28;20029;-56
2023/06/03 03:25:21;;;;;;;2.45;2.25;;;;;;;;;;10494617;28;20021;-56
2023/06/03 03:30:21;;;;;;;2.25;1.90;;;;;;;;;;10494339;28;20100;-57
2023/06/03 03:35:22;;;;;;;1.98;1.88;;;;;;;;;;10494636;28;20035;-56
2023/06/03 03:40:23;;;;;;;2.30;2.10;;;;;;;;;;10494200;28;20108;-56
2023/06/03 03:45:30;;;;;;;3.05;2.50;;;;;;;;;;10493772;28;20262;-56
2023/06/03 03:50:43;;;;;;;2.30;2.08;;;;;;;;;;10493712;28;20523;-56
2023/06/03 03:55:49;;;;;;;2.35;2.15;;;;;;;;;;10493461;28;20163;-56
2023/06/03 04:00:51;;;;;;;3.13;2.50;;;;;;;;;;10493646;28;20383;-57
2023/06/03 04:05:53;;;;;;;2.47;2.28;;;;;;;;;;10492824;28;20040;-57
2023/06/03 04:10:59;;;;;;;2.15;2.00;;;;;;;;;;10493082;28;20036;-56
2023/06/03 04:16:00;;;;;;;2.78;2.08;;;;;;;;;;10491485;28;20112;-56
2023/06/03 04:21:01;;;;;;;2.20;2.00;;;;;;;;;;10492710;28;20052;-55
2023/06/03 04:26:02;;;;;;;2.38;2.17;;;;;;;;;;10493061;28;20475;-55
2023/06/03 04:31:03;;;;;;;2.10;1.90;;;;;;;;;;10492419;28;20479;-55
2023/06/03 04:51:14;;;;;;;2.58;2.00;;;;;;;;;;10569962;27;20623;-55
2023/06/03 04:56:14;;;;;;;2.40;2.15;;;;;;;;;;10527733;28;20483;-56
2023/06/03 05:01:17;;;;;;;2.25;2.00;;;;;;;;;;10527580;28;20044;-56
2023/06/03 05:06:19;;;;;;;2.15;2.05;;;;;;;;;;10527936;28;20078;-56
2023/06/03 05:11:20;;;;;;;2.30;2.10;;;;;;;;;;10527122;28;20020;-56
2023/06/03 05:16:21;;;;;;;2.33;1.95;;;;;;;;;;10527506;28;20020;-54
2023/06/03 05:21:21;;;;;;;1.90;1.80;;;;;;;;;;10526933;28;20027;-56
2023/06/03 05:26:22;;;;;;;3.00;2.00;;;;;;;;;;10526713;28;20025;-56
2023/06/03 05:31:23;;;;;;;1.80;1.70;;;;;;;;;;10527115;28;20085;-56
2023/06/03 05:36:26;;;;;;;2.30;2.10;;;;;;;;;;10526522;28;20063;-56
2023/06/03 05:41:26;;;;;;;1.77;1.67;;;;;;;;;;10526110;28;20024;-56
2023/06/03 05:46:27;;;;;;;1.90;1.80;;;;;;;;;;10526051;28;20050;-56
2023/06/03 05:51:28;;;;;;;2.20;2.00;;;;;;;;;;10501905;28;20471;-54
2023/06/03 05:56:28;;;;;;;2.92;2.10;;;;;;;;;;10497540;28;20387;-55
2023/06/03 06:01:30;;;;;;;2.25;2.05;;;;;;;;;;10497482;28;20032;-55
2023/06/03 06:06:31;;;;;;;2.45;2.25;;;;;;;;;;10497327;28;20035;-55
2023/06/03 06:11:31;;;;;;;2.00;1.90;;;;;;;;;;10496992;28;20032;-55
2023/06/03 06:16:32;;;;;;;2.25;2.05;;;;;;;;;;10497301;28;20449;-55
2023/06/03 06:21:32;;;;;;;2.40;2.20;;;;;;;;;;10496872;28;20380;-55
2023/06/03 06:26:33;;;;;;;1.80;1.70;;;;;;;;;;10496583;28;20360;-55
2023/06/03 06:31:33;;;;;;;2.10;1.85;;;;;;;;;;10495292;28;20086;-55
2023/06/03 06:36:49;;;;;;;3.70;2.17;;;;;;;;;;10496102;28;20032;-55
2023/06/03 06:41:50;;;;;;;2.03;1.92;;;;;;;;;;10495825;28;20475;-55
2023/06/03 06:46:55;;;;;;;2.05;1.85;;;;;;;;;;10494221;28;20049;-55
2023/06/03 06:51:56;;;;;;;2.00;1.90;;;;;;;;;;10495488;28;20020;-56
2023/06/03 06:56:57;;;;;;;2.17;1.98;;;;;;;;;;10495386;28;20029;-56
2023/06/03 07:01:57;;;;;;;2.35;2.10;;;;;;;;;;10495163;28;20028;-55
2023/06/03 07:06:58;;;;;;;2.00;1.80;;;;;;;;;;10495190;28;20029;-55
2023/06/03 07:11:58;;;;;;;2.00;1.90;;;;;;;;;;10494654;28;20028;-54
2023/06/03 07:16:59;;;;;;;2.17;1.92;;;;;;;;;;10494314;28;20039;-56
2023/06/03 07:22:01;;;;;;;2.10;1.90;;;;;;;;;;10492983;28;20140;-56
2023/06/03 07:27:06;;;;;;;2.30;1.98;;;;;;;;;;10493871;28;20537;-55
2023/06/03 07:32:08;;;;;;;2.10;1.92;;;;;;;;;;10492722;28;20094;-55
2023/06/03 07:37:12;;;;;;;1.98;1.73;;;;;;;;;;10493473;28;20062;-56
2023/06/03 07:42:22;;;;;;;2.25;2.05;;;;;;;;;;10493345;28;20025;-56
2023/06/03 07:47:25;;;;;;;3.65;2.00;;;;;;;;;;10493089;28;20295;-56
2023/06/03 07:52:28;;;;;;;2.40;2.10;;;;;;;;;;10493095;28;20035;-56
2023/06/03 07:57:33;;;;;;;2.53;2.20;;;;;;;;;;10492760;28;20032;-56
2023/06/03 08:02:37;;;;;;;2.58;2.38;;;;;;;;;;10491651;28;20028;-56
2023/06/03 08:07:38;;;;;;;2.97;2.28;;;;;;;;;;10493096;28;20032;-56
2023/06/03 08:12:43;;;;;;;3.85;2.30;;;;;;;;;;10492213;28;20384;-56
2023/06/03 08:17:44;;;;;;;4.70;2.80;;;;;;;;;;10491165;28;20613;-56
2023/06/03 08:22:45;;;;;;;2.28;2.03;;;;;;;;;;10493034;28;20243;-56
2023/06/03 08:27:46;;;;;;;2.35;2.15;;;;;;;;;;10492250;28;20025;-56
2023/06/03 08:32:48;;;;;;;2.83;2.55;;;;;;;;;;10492214;28;20020;-55
2023/06/03 08:37:49;;;;;;;2.50;2.30;;;;;;;;;;10492023;28;20028;-55
2023/06/03 08:43:00;;;;;;;3.10;2.80;;;;;;;;;;10492328;28;20024;-55
2023/06/03 08:48:06;;;;;;;3.05;2.35;;;;;;;;;;10491741;28;20051;-54
2023/06/03 08:53:11;;;;;;;4.28;2.45;;;;;;;;;;10491700;28;20056;-55
2023/06/03 08:58:16;;;;;;;2.70;2.50;;;;;;;;;;10490189;28;20036;-54
2023/06/03 09:03:18;;;;;;;2.63;2.30;;;;;;;;;;10490404;28;20051;-55
2023/06/03 09:08:20;;;;;;;2.47;2.28;;;;;;;;;;10490216;28;20099;-55
2023/06/03 09:13:21;;;;;;;3.08;2.20;;;;;;;;;;10491194;28;20028;-55
2023/06/03 09:18:22;;;;;;;2.30;2.00;;;;;;;;;;10491092;28;20068;-55
2023/06/03 09:23:25;;;;;;;2.67;2.47;;;;;;;;;;10490946;28;20078;-55
2023/06/03 09:28:26;;;;;;;2.70;2.50;;;;;;;;;;10497439;28;20035;-55
2023/06/03 09:33:27;;;;;;;4.03;2.60;;;;;;;;;;10499048;28;20029;-55
2023/06/03 09:38:52;;;;;;;2.50;2.25;;;;;;;;;;10498036;28;20028;-54
2023/06/03 09:44:01;;;;;;;4.03;2.20;;;;;;;;;;10498113;28;20472;-55
2023/06/03 09:49:14;;;;;;;3.35;2.40;;;;;;;;;;10498037;28;20071;-55
2023/06/03 09:54:22;;;;;;;2.72;2.53;;;;;;;;;;10498120;28;20032;-56
2023/06/03 09:59:25;;;;;;;;;;;;;;;;;;10497939;28;20376;-55
2023/06/03 10:04:46;;;;;;;2.25;2.05;;;;;;;;;;10497547;28;20003;-55
2023/06/03 10:09:47;;;;;;;2.53;2.33;;;;;;;;;;10496855;28;20097;-55
2023/06/03 10:14:50;;;;;;;2.60;2.30;;;;;;;;;;10497092;28;20025;-56
2023/06/03 10:19:50;;;;;;;2.60;2.40;;;;;;;;;;10496802;28;20033;-55
2023/06/03 10:24:56;;;;;;;2.72;2.30;;;;;;;;;;10496517;28;20103;-56
2023/06/03 10:29:57;;;;;;;2.40;2.20;;;;;;;;;;10496463;28;20404;-56
2023/06/03 10:34:59;;;;;;;2.60;2.40;;;;;;;;;;10496215;28;20294;-55
2023/06/03 10:40:00;;;;;;;2.83;2.00;;;;;;;;;;10478161;28;20032;-54
2023/06/03 10:45:01;;;;;;;2.47;2.20;;;;;;;;;;10495917;28;20440;-56
2023/06/03 10:50:43;;;;;;;3.10;2.20;;;;;;;;;;10494323;28;20072;-55
2023/06/03 10:56:25;;;;;;;2.47;2.28;;;;;;;;;;10495341;28;20111;-56
2023/06/03 11:01:58;;;;;;;2.65;2.25;;;;;;;;;;10495240;28;20046;-56
2023/06/03 11:07:00;;;;;;;3.67;2.40;;;;;;;;;;10495226;28;20612;-56
2023/06/03 11:12:06;;;;;;;2.28;2.03;;;;;;;;;;10494796;28;20025;-54
2023/06/03 11:17:12;;;;;;;2.25;2.10;;;;;;;;;;10494631;28;20040;-55
2023/06/03 11:22:34;;;;;;;2.10;2.00;;;;;;;;;;10494521;28;20039;-54
2023/06/03 11:27:35;;;;;;;2.40;2.20;;;;;;;;;;10493207;28;20025;-55
2023/06/03 11:32:36;;;;;;;2.90;2.25;;;;;;;;;;10494206;28;20020;-56
2023/06/03 11:37:40;;;;;;;2.40;2.20;;;;;;;;;;10493726;28;20032;-55
2023/06/03 11:42:46;;;;;;;2.33;1.90;;;;;;;;;;10493589;28;20424;-54
2023/06/03 11:47:53;;;;;;;2.50;2.30;;;;;;;;;;10492680;28;20040;-55
2023/06/03 11:52:54;;;;;;;2.53;2.25;;;;;;;;;;10493595;28;20025;-55
2023/06/03 11:58:06;;;;;;;2.30;2.10;;;;;;;;;;10492915;28;20028;-55
2023/06/03 12:03:15;;;;;;;2.22;2.03;;;;;;;;;;10493252;28;20021;-54
2023/06/03 12:08:15;;;;;;;2.33;2.15;;;;;;;;;;10492966;28;20025;-55
2023/06/03 12:13:16;;;;;;;2.95;2.47;;;;;;;;;;10492656;28;20020;-54
2023/06/03 12:18:16;;;;;;;2.35;2.10;;;;;;;;;;10492576;28;20033;-55
2023/06/03 12:23:17;;;;;;;3.13;2.25;;;;;;;;;;10492634;28;20040;-55
2023/06/03 12:28:27;;;;;;;2.58;2.38;;;;;;;;;;10492119;28;20020;-54
2023/06/03 12:33:45;;;;;;;2.40;2.20;;;;;;;;;;10492844;28;20021;-56
2023/06/03 12:38:56;;;;;;;3.20;2.30;;;;;;;;;;10491369;28;20024;-55
2023/06/03 12:44:04;;;;;;;2.58;2.10;;;;;;;;;;10492476;28;20036;-55
2023/06/03 12:49:13;;;;;;;2.40;2.13;;;;;;;;;;10491842;28;20048;-55
2023/06/03 12:54:15;;;;;;;2.30;2.10;;;;;;;;;;10491878;28;20028;-55
2023/06/03 12:59:16;;;;;;;2.75;2.30;;;;;;;;;;10494366;28;20036;-56
2023/06/03 13:04:17;;;;;;;2.70;2.30;;;;;;;;;;10500388;28;20020;-55
2023/06/03 13:09:18;;;;;;;2.85;2.42;;;;;;;;;;10500154;28;20028;-55
2023/06/03 13:14:18;;;;;;;2.70;2.50;;;;;;;;;;10499433;28;20032;-55
2023/06/03 13:19:19;;;;;;;2.55;2.05;;;;;;;;;;10499139;28;20667;-56
2023/06/03 13:24:19;;;;;;;2.58;2.38;;;;;;;;;;10499183;28;20044;-56
2023/06/03 13:43:09;;;;;;;4.00;2.53;;;;;;;;;;10612436;27;20622;-63
2023/06/03 13:48:11;;;;;;;2.83;2.55;;;;;;;;;;10569900;28;20501;-65
2023/06/03 13:53:12;;;;;;;2.70;2.50;;;;;;;;;;10569869;28;20024;-66
2023/06/03 13:58:13;;;;;;;2.78;2.58;;;;;;;;;;10570022;28;20474;-66
2023/06/03 14:03:14;;;;;;;2.88;2.63;;;;;;;;;;10569338;28;20020;-66
2023/06/03 14:08:14;;;;;;;2.88;2.60;;;;;;;;;;10569113;28;20088;-65
2023/06/03 14:13:15;;;;;;;3.70;2.53;;;;;;;;;;10568987;28;20031;-66
2023/06/03 14:18:16;;;;;;;2.78;2.42;;;;;;;;;;10568705;28;20097;-68
2023/06/03 14:23:17;;;;;;;2.90;2.70;;;;;;;;;;10568639;28;20023;-66
2023/06/03 14:28:18;;;;;;;4.78;3.10;;;;;;;;;;10568308;28;20115;-66
2023/06/03 14:33:21;;;;;;;5.50;3.08;;;;;;;;;;10568140;28;20028;-66
2023/06/03 14:38:21;;;;;;;3.45;2.75;;;;;;;;;;10568061;28;20125;-65
2023/06/03 14:43:22;;;;;;;3.65;2.65;;;;;;;;;;10543675;28;20555;-63
2023/06/03 14:48:24;;;;;;;2.85;2.50;;;;;;;;;;10539563;28;20059;-64
2023/06/03 14:53:26;;;;;;;2.72;2.53;;;;;;;;;;10539270;28;20530;-62
2023/06/03 14:58:27;;;;;;;2.85;2.60;;;;;;;;;;10539184;28;20119;-65
2023/06/03 15:03:28;;;;;;;3.97;2.90;;;;;;;;;;10538804;28;20043;-65
2023/06/03 15:08:28;;;;;;;3.17;2.70;;;;;;;;;;10538706;28;20028;-68
2023/06/03 15:13:29;;;;;;;3.22;2.60;;;;;;;;;;10538709;28;20027;-67
2023/06/03 15:18:30;;;;;;;3.38;2.70;;;;;;;;;;10538360;28;20441;-67
2023/06/03 15:23:30;;;;;;;4.30;2.67;;;;;;;;;;10538244;28;20017;-66
2023/06/03 15:28:31;;;;;;;3.80;2.97;;;;;;;;;;10538036;28;20035;-67
2023/06/03 15:33:31;;;;;;;3.33;2.85;;;;;;;;;;10537628;28;20032;-68
2023/06/03 15:38:32;;;;;;;4.70;3.08;;;;;;;;;;10537614;28;20044;-67
2023/06/03 15:43:33;;;;;;;3.58;3.03;;;;;;;;;;10537428;28;20081;-68
2023/06/03 15:48:33;;;;;;;4.00;2.70;;;;;;;;;;10536965;28;20343;-67
2023/06/03 15:53:34;;;;;;;3.25;2.95;;;;;;;;;;10536365;28;20031;-67
2023/06/03 15:58:34;;;;;;;3.05;2.75;;;;;;;;;;10536779;28;20039;-66
2023/06/03 16:03:36;;;;;;;2.90;2.60;;;;;;;;;;10536358;28;20023;-67
2023/06/03 16:08:36;;;;;;;2.95;2.58;;;;;;;;;;10536622;28;20028;-66
2023/06/03 16:13:39;;;;;;;2.70;2.50;;;;;;;;;;10535941;28;20024;-68
2023/06/03 16:18:40;;;;;;;3.28;2.88;;;;;;;;;;10535948;28;20032;-67
2023/06/03 16:23:41;;;;;;;2.78;2.58;;;;;;;;;;10535754;28;20067;-68
2023/06/03 16:28:42;;;;;;;2.97;2.67;;;;;;;;;;10535534;28;20062;-67
2023/06/03 16:33:45;;;;;;;2.63;2.42;;;;;;;;;;10535569;28;20456;-68
2023/06/03 16:38:46;;;;;;;3.28;2.95;;;;;;;;;;10534965;28;20491;-68
2023/06/03 16:43:46;;;;;;;3.10;2.80;;;;;;;;;;10535066;28;20032;-67
2023/06/03 16:48:47;;;;;;;3.05;2.75;;;;;;;;;;10534864;28;20054;-68
2023/06/03 16:53:47;;;;;;;3.30;2.88;;;;;;;;;;10535011;28;20024;-68
2023/06/03 16:58:48;;;;;;;4.47;3.25;;;;;;;;;;10534538;28;20024;-68
2023/06/03 17:03:49;;;;;;;4.10;3.10;;;;;;;;;;10533873;28;20032;-67
2023/06/03 17:08:50;;;;;;;3.60;3.00;;;;;;;;;;10534167;28;20042;-67
2023/06/03 17:13:51;;;;;;;3.10;2.80;;;;;;;;;;10534146;28;20455;-68
2023/06/03 17:18:52;;;;;;;3.28;2.97;;;;;;;;;;10533959;28;20029;-68
2023/06/03 17:23:52;;;;;;;3.35;3.05;;;;;;;;;;10533800;28;20024;-68
2023/06/03 17:28:53;;;;;;;3.65;3.10;;;;;;;;;;10533842;28;20035;-67
2023/06/03 17:33:53;;;;;;;3.20;2.65;;;;;;;;;;10533759;28;20039;-67
2023/06/03 17:38:54;;;;;;;4.15;3.03;;;;;;;;;;10533336;28;20051;-65
2023/06/03 17:43:55;;;;;;;4.20;2.80;;;;;;;;;;10533431;28;20027;-68
2023/06/03 17:48:55;;;;;;;3.22;2.92;;;;;;;;;;10533107;28;20105;-66
2023/06/03 17:53:56;;;;;;;3.55;3.10;;;;;;;;;;10533464;28;20031;-68
2023/06/03 17:58:56;;;;;;;3.40;3.10;;;;;;;;;;10533179;28;20394;-67
2023/06/03 18:03:57;;;;;;;4.32;3.05;;;;;;;;;;10532999;28;20036;-67
2023/06/03 18:08:58;;;;;;;3.55;2.80;;;;;;;;;;10532914;28;20047;-68
2023/06/03 18:13:58;;;;;;;3.05;2.75;;;;;;;;;;10533032;28;20028;-67
2023/06/03 18:18:59;;;;;;;3.20;2.90;;;;;;;;;;10539673;28;20058;-68
2023/06/03 18:24:00;;;;;;;4.00;3.10;;;;;;;;;;10540618;28;20020;-68
2023/06/03 18:29:00;;;;;;;4.80;2.80;;;;;;;;;;10540424;28;20032;-68
2023/06/03 18:34:01;;;;;;;5.15;3.20;;;;;;;;;;10540132;28;20029;-68
2023/06/03 18:39:02;;;;;;;4.00;3.05;;;;;;;;;;10539658;28;20048;-68
2023/06/03 18:44:03;;;;;;;3.58;2.80;;;;;;;;;;10539852;28;20383;-68
2023/06/03 18:49:03;;;;;;;3.47;2.92;;;;;;;;;;10538233;28;20047;-68
2023/06/03 18:54:04;;;;;;;3.72;2.70;;;;;;;;;;10539421;28;20064;-68
2023/06/03 18:59:04;;;;;;;3.63;3.03;;;;;;;;;;10539196;28;20111;-67
2023/06/03 19:04:05;;;;;;;2.95;2.72;;;;;;;;;;10538912;28;20043;-68
2023/06/03 19:09:11;;;;;;;3.53;3.05;;;;;;;;;;10539033;28;20028;-67
2023/06/03 19:14:12;;;;;;;2.88;2.58;;;;;;;;;;10539197;28;20063;-68
2023/06/03 19:19:12;;;;;;;2.63;2.42;;;;;;;;;;10538830;28;20345;-67
2023/06/03 19:24:13;;;;;;;4.10;3.00;;;;;;;;;;10538358;28;20463;-68
2023/06/03 19:29:13;;;;;;;4.05;3.00;;;;;;;;;;10537738;28;20417;-68
2023/06/03 19:34:14;;;;;;;2.50;2.30;;;;;;;;;;10537938;28;20032;-68
2023/06/03 19:39:15;;;;;;;3.15;2.63;;;;;;;;;;10537818;28;20487;-68
2023/06/03 19:44:15;;;;;;;3.03;2.22;;;;;;;;;;10537562;28;20051;-68
2023/06/03 19:49:16;;;;;;;2.67;2.47;;;;;;;;;;10537460;28;20024;-68
2023/06/03 19:54:17;;;;;;;2.95;2.40;;;;;;;;;;10537069;28;20024;-68
2023/06/03 19:59:19;;;;;;;2.40;2.20;;;;;;;;;;10537111;28;20035;-69
2023/06/03 20:04:20;;;;;;;2.72;2.53;;;;;;;;;;10537458;28;20089;-67
2023/06/03 20:09:21;;;;;;;3.10;2.55;;;;;;;;;;10536541;28;20088;-66
2023/06/03 20:14:21;;;;;;;3.50;2.50;;;;;;;;;;10536421;28;20414;-64
2023/06/03 20:19:22;;;;;;;2.50;2.30;;;;;;;;;;10535829;28;20032;-67
2023/06/03 20:24:23;;;;;;;2.55;2.35;;;;;;;;;;10536239;28;20552;-67
2023/06/03 20:29:24;;;;;;;2.95;2.13;;;;;;;;;;10535626;28;20399;-67
2023/06/03 20:34:25;;;;;;;2.72;2.20;;;;;;;;;;10535637;28;20024;-68
2023/06/03 20:39:26;;;;;;;2.63;2.42;;;;;;;;;;10534757;28;20047;-66
2023/06/03 20:44:27;;;;;;;2.88;2.40;;;;;;;;;;10535108;28;20024;-66
2023/06/03 20:49:27;;;;;;;2.67;2.40;;;;;;;;;;10535197;28;20081;-67
2023/06/03 20:54:28;;;;;;;2.10;1.98;;;;;;;;;;10534765;28;20024;-66
2023/06/03 20:59:28;;;;;;;2.60;2.40;;;;;;;;;;10534604;28;20028;-65
2023/06/03 21:04:30;;;;;;;2.70;2.50;;;;;;;;;;10534913;28;20015;-68
2023/06/03 21:09:31;;;;;;;2.38;2.15;;;;;;;;;;10534416;28;20035;-67
2023/06/03 21:14:31;;;;;;;2.55;2.35;;;;;;;;;;10534700;28;20031;-68
2023/06/03 21:19:32;;;;;;;2.65;2.35;;;;;;;;;;10533875;28;20028;-66
2023/06/03 21:24:32;;;;;;;2.90;2.47;;;;;;;;;;10533953;28;20073;-67
2023/06/03 21:29:34;;;;;;;3.20;2.13;;;;;;;;;;10533673;28;20225;-66
2023/06/03 21:34:35;;;;;;;3.28;2.22;;;;;;;;;;10534024;28;20032;-68
2023/06/03 21:39:35;;;;;;;2.40;2.20;;;;;;;;;;10533369;28;20406;-66
2023/06/03 21:44:36;;;;;;;2.30;2.00;;;;;;;;;;10533482;28;20032;-68
2023/06/03 21:49:36;;;;;;;2.65;2.40;;;;;;;;;;10533511;28;20035;-67
2023/06/03 21:54:41;;;;;;;2.83;2.33;;;;;;;;;;10541758;28;20020;-68
2023/06/03 21:59:42;;;;;;;2.53;2.33;;;;;;;;;;10541552;28;20032;-68
2023/06/03 22:04:43;;;;;;;2.20;2.00;;;;;;;;;;10541440;28;20028;-67
2023/06/03 22:09:43;;;;;;;2.25;2.00;;;;;;;;;;10541131;28;20032;-67
2023/06/03 22:14:44;;;;;;;2.30;2.03;;;;;;;;;;10541441;28;20398;-67
2023/06/03 22:19:44;;;;;;;2.38;1.90;;;;;;;;;;10540695;28;20391;-68
2023/06/03 22:24:45;;;;;;;2.95;2.50;;;;;;;;;;10540897;28;20063;-67
2023/06/03 22:29:45;;;;;;;2.35;2.15;;;;;;;;;;10540422;28;20027;-68
2023/06/03 22:34:46;;;;;;;2.35;2.15;;;;;;;;;;10540214;28;20024;-68
2023/06/03 22:39:48;;;;;;;2.78;2.17;;;;;;;;;;10539852;28;20040;-67
2023/06/03 22:44:49;;;;;;;1.92;1.83;;;;;;;;;;10539865;28;20043;-67
2023/06/03 22:49:49;;;;;;;2.42;2.22;;;;;;;;;;10539662;28;20032;-68
2023/06/03 22:54:50;;;;;;;2.42;2.20;;;;;;;;;;10539580;28;20028;-68
2023/06/03 22:59:50;;;;;;;2.22;2.03;;;;;;;;;;10539488;28;20474;-66
2023/06/03 23:04:51;;;;;;;1.95;1.85;;;;;;;;;;10538818;28;20352;-68
2023/06/03 23:09:52;;;;;;;2.20;2.00;;;;;;;;;;10538767;28;20403;-67
2023/06/03 23:14:52;;;;;;;2.10;1.92;;;;;;;;;;10538725;28;20395;-67
2023/06/03 23:19:53;;;;;;;3.30;2.45;;;;;;;;;;10538293;28;20503;-68
2023/06/03 23:24:53;;;;;;;2.50;2.05;;;;;;;;;;10538344;28;20036;-67
2023/06/03 23:29:55;;;;;;;2.33;2.13;;;;;;;;;;10537930;28;20024;-68
2023/06/03 23:34:55;;;;;;;2.05;1.92;;;;;;;;;;10537807;28;20034;-67
2023/06/03 23:39:56;;;;;;;2.13;2.00;;;;;;;;;;10537425;28;20036;-67
2023/06/03 23:44:58;;;;;;;1.90;1.80;;;;;;;;;;10537506;28;20482;-66
2023/06/03 23:50:00;;;;;;;2.72;2.10;;;;;;;;;;10537155;28;20110;-68
2023/06/03 23:55:01;;;;;;;2.33;1.90;;;;;;;;;;10537147;28;20040;-68
